createdAt,value
2022-10-10T00:01:42.377Z,488.50
2022-10-10T00:04:10.355Z,486.37
2022-10-10T00:06:39.805Z,502.07
2022-10-10T00:09:07.775Z,505.00
2022-10-10T00:11:36.930Z,520.83
2022-10-10T00:14:05.433Z,521.37
2022-10-10T00:16:33.481Z,526.83
2022-10-10T00:19:01.403Z,527.50
2022-10-10T00:21:29.400Z,521.83
2022-10-10T00:23:58.866Z,513.30
2022-10-10T00:26:26.815Z,517.07
2022-10-10T00:28:54.759Z,517.67
2022-10-10T00:31:22.735Z,538.27
2022-10-10T00:33:50.687Z,525.60
2022-10-10T00:36:20.522Z,507.70
2022-10-10T00:38:48.517Z,514.13
2022-10-10T00:41:18.157Z,507.47
2022-10-10T00:44:01.944Z,505.23
2022-10-10T00:46:29.968Z,519.73
2022-10-10T00:48:57.879Z,522.87
2022-10-10T00:51:25.893Z,532.93
2022-10-10T00:53:57.787Z,526.07
2022-10-10T00:56:29.673Z,522.13
2022-10-10T00:59:00.154Z,537.00
2022-10-10T01:01:28.221Z,529.53
2022-10-10T01:03:58.914Z,515.13
2022-10-10T01:06:27.127Z,534.97
2022-10-10T01:08:56.037Z,527.30
2022-10-10T01:11:37.417Z,523.87
2022-10-10T01:14:12.153Z,528.37
2022-10-10T01:16:44.704Z,523.23
2022-10-10T01:19:26.020Z,521.47
2022-10-10T01:21:59.036Z,531.77
2022-10-10T01:24:50.367Z,542.47
2022-10-10T01:27:31.873Z,533.33
2022-10-10T01:30:07.829Z,534.70
2022-10-10T01:32:40.576Z,534.40
2022-10-10T01:35:17.203Z,537.00
2022-10-10T01:37:49.908Z,532.77
2022-10-10T01:40:25.175Z,547.60
2022-10-10T01:42:56.103Z,539.27
2022-10-10T01:45:26.065Z,542.27
2022-10-10T01:47:55.409Z,558.50
2022-10-10T01:50:25.792Z,554.50
2022-10-10T01:53:01.527Z,550.17
2022-10-10T01:55:39.886Z,539.47
2022-10-10T01:58:20.353Z,541.73
2022-10-10T02:00:52.896Z,548.27
2022-10-10T02:03:23.246Z,542.87
2022-10-10T02:05:54.828Z,552.30
2022-10-10T02:08:27.799Z,558.80
2022-10-10T02:10:58.051Z,567.57
2022-10-10T02:13:30.149Z,580.17
2022-10-10T02:16:00.898Z,589.73
2022-10-10T02:18:31.267Z,587.20
2022-10-10T02:20:59.646Z,585.47
2022-10-10T02:23:28.133Z,576.40
2022-10-10T02:25:57.481Z,574.70
2022-10-10T02:28:27.201Z,575.50
2022-10-10T02:31:01.001Z,582.20
2022-10-10T02:33:33.344Z,567.07
2022-10-10T02:36:01.756Z,564.07
2022-10-10T02:38:30.351Z,557.00
2022-10-10T02:41:03.825Z,554.40
2022-10-10T02:43:32.788Z,570.10
2022-10-10T02:46:03.868Z,567.40
2022-10-10T02:48:31.863Z,557.27
2022-10-10T02:50:59.774Z,555.60
2022-10-10T02:53:27.697Z,569.43
2022-10-10T02:55:55.582Z,574.63
2022-10-10T02:58:23.568Z,575.00
2022-10-10T03:00:51.481Z,581.27
2022-10-10T03:03:20.810Z,579.67
2022-10-10T03:05:48.756Z,586.63
2022-10-10T03:08:17.024Z,581.00
2022-10-10T03:10:55.685Z,593.80
2022-10-10T03:13:23.824Z,600.83
2022-10-10T03:15:51.758Z,600.00
2022-10-10T03:18:21.124Z,583.90
2022-10-10T03:20:52.575Z,594.30
2022-10-10T03:23:20.716Z,599.20
2022-10-10T03:25:48.595Z,607.50
2022-10-10T03:28:16.632Z,605.33
2022-10-10T03:30:44.919Z,616.20
2022-10-10T03:33:12.953Z,610.43
2022-10-10T03:35:42.309Z,610.60
2022-10-10T03:38:11.671Z,618.93
2022-10-10T03:40:41.862Z,620.03
2022-10-10T03:43:10.438Z,624.67
2022-10-10T03:45:38.673Z,627.03
2022-10-10T03:48:06.736Z,625.40
2022-10-10T03:50:34.792Z,632.10
2022-10-10T03:53:04.226Z,630.80
2022-10-10T03:55:32.196Z,635.53
2022-10-10T03:58:00.192Z,624.10
2022-10-10T04:00:28.222Z,627.73
2022-10-10T04:02:56.188Z,634.63
2022-10-10T04:05:24.109Z,632.80
2022-10-10T04:07:52.036Z,641.47
2022-10-10T04:10:21.326Z,635.20
2022-10-10T04:12:49.541Z,632.40
2022-10-10T04:15:17.882Z,629.90
2022-10-10T04:17:45.771Z,634.70
2022-10-10T04:20:13.747Z,643.03
2022-10-10T04:22:42.712Z,635.70
2022-10-10T04:25:11.033Z,637.47
2022-10-10T04:27:40.262Z,635.77
2022-10-10T04:30:09.264Z,637.03
2022-10-10T04:32:37.587Z,634.20
2022-10-10T04:35:06.388Z,630.40
2022-10-10T04:37:34.924Z,627.03
2022-10-10T04:40:03.059Z,627.87
2022-10-10T04:42:31.364Z,627.87
2022-10-10T04:45:00.725Z,624.50
2022-10-10T04:47:29.056Z,626.73
2022-10-10T04:49:56.940Z,483.17
2022-10-10T04:52:25.212Z,598.67
2022-10-10T04:54:53.128Z,599.93
2022-10-10T04:57:21.052Z,607.60
2022-10-10T04:59:48.940Z,608.07
2022-10-10T05:02:18.296Z,618.60
2022-10-10T05:04:46.305Z,625.23
2022-10-10T05:07:14.271Z,631.30
2022-10-10T05:09:42.222Z,632.30
2022-10-10T05:12:10.257Z,630.93
2022-10-10T05:14:38.227Z,623.17
2022-10-10T05:17:06.298Z,620.50
2022-10-10T05:19:35.700Z,625.27
2022-10-10T05:22:03.728Z,632.93
2022-10-10T05:24:31.883Z,626.13
2022-10-10T05:26:59.849Z,607.40
2022-10-10T05:29:27.791Z,617.33
2022-10-10T05:31:55.759Z,610.63
2022-10-10T05:34:23.714Z,610.77
2022-10-10T05:36:53.316Z,605.30
2022-10-10T05:39:21.317Z,614.80
2022-10-10T05:41:49.284Z,612.47
2022-10-10T05:44:17.285Z,622.53
2022-10-10T05:46:45.300Z,621.30
2022-10-10T05:49:13.210Z,623.57
2022-10-10T05:51:41.120Z,613.70
2022-10-10T05:54:10.650Z,623.53
2022-10-10T05:56:38.839Z,633.03
2022-10-10T05:59:06.901Z,638.73
2022-10-10T06:01:34.986Z,649.37
2022-10-10T06:04:02.954Z,656.50
2022-10-10T06:06:30.995Z,654.93
2022-10-10T06:08:59.236Z,663.33
2022-10-10T06:11:29.279Z,666.93
2022-10-10T06:13:57.542Z,666.10
2022-10-10T06:16:26.550Z,671.33
2022-10-10T06:18:56.596Z,670.37
2022-10-10T06:21:25.372Z,676.90
2022-10-10T06:23:53.617Z,680.77
2022-10-10T06:26:21.636Z,691.17
2022-10-10T06:28:51.741Z,686.43
2022-10-10T06:31:19.747Z,692.23
2022-10-10T06:33:49.126Z,690.37
2022-10-10T06:36:17.790Z,686.67
2022-10-10T06:38:46.994Z,669.67
2022-10-10T06:41:15.027Z,680.17
2022-10-10T06:43:42.928Z,680.30
2022-10-10T06:46:12.364Z,682.60
2022-10-10T06:48:41.324Z,689.80
2022-10-10T06:51:11.966Z,679.03
2022-10-10T06:53:40.421Z,673.90
2022-10-10T06:56:08.550Z,682.07
2022-10-10T06:58:36.645Z,684.87
2022-10-10T07:01:05.849Z,686.43
2022-10-10T07:03:35.330Z,651.23
2022-10-10T07:06:04.109Z,596.23
2022-10-10T07:08:32.270Z,596.93
2022-10-10T07:11:00.232Z,608.70
2022-10-10T07:13:28.295Z,611.40
2022-10-10T07:15:56.287Z,626.20
2022-10-10T07:18:24.531Z,645.40
2022-10-10T07:20:56.944Z,658.83
2022-10-10T07:23:24.942Z,671.83
2022-10-10T07:25:53.091Z,694.97
2022-10-10T07:28:21.471Z,710.53
2022-10-10T07:30:50.273Z,721.93
2022-10-10T07:33:18.303Z,732.30
2022-10-10T07:35:55.703Z,726.30
2022-10-10T07:38:23.618Z,729.70
2022-10-10T07:40:52.635Z,714.70
2022-10-10T07:43:20.726Z,711.47
2022-10-10T07:45:48.754Z,690.90
2022-10-10T07:48:16.782Z,692.67
2022-10-10T07:50:45.387Z,671.10
2022-10-10T07:53:14.875Z,663.70
2022-10-10T07:55:43.620Z,670.10
2022-10-10T07:58:11.852Z,654.77
2022-10-10T08:00:41.954Z,653.23
2022-10-10T08:03:12.132Z,659.77
2022-10-10T08:05:41.205Z,672.20
2022-10-10T08:08:09.364Z,651.50
2022-10-10T08:10:39.160Z,635.57
2022-10-10T08:13:07.783Z,634.97
2022-10-10T08:15:35.699Z,618.70
2022-10-10T08:18:04.569Z,602.60
2022-10-10T08:20:32.590Z,584.47
2022-10-10T08:23:00.548Z,558.20
2022-10-10T08:25:28.700Z,564.00
2022-10-10T08:27:58.085Z,561.73
2022-10-10T08:30:26.812Z,543.87
2022-10-10T08:32:55.983Z,555.27
2022-10-10T08:35:23.989Z,544.20
2022-10-10T08:37:55.090Z,542.43
2022-10-10T08:40:23.888Z,530.13
2022-10-10T08:42:54.879Z,525.60
2022-10-10T08:45:26.303Z,529.73
2022-10-10T08:47:57.078Z,522.60
2022-10-10T08:50:28.004Z,520.10
2022-10-10T08:52:58.920Z,513.73
2022-10-10T08:55:31.018Z,514.70
2022-10-10T08:58:01.180Z,511.97
2022-10-10T09:00:33.448Z,527.73
2022-10-10T09:03:01.732Z,508.70
2022-10-10T09:05:40.420Z,503.70
2022-10-10T09:08:29.251Z,527.60
2022-10-10T09:10:59.604Z,526.43
2022-10-10T09:13:39.094Z,508.27
2022-10-10T09:16:21.124Z,522.20
2022-10-10T09:19:01.553Z,509.73
2022-10-10T09:21:32.022Z,521.30
2022-10-10T09:24:04.493Z,502.43
2022-10-10T09:26:39.972Z,502.70
2022-10-10T09:29:16.866Z,495.30
2022-10-10T09:31:49.449Z,498.83
2022-10-10T09:34:20.375Z,487.97
2022-10-10T09:36:49.670Z,510.00
2022-10-10T09:39:24.357Z,501.43
2022-10-10T09:41:58.908Z,495.83
2022-10-10T09:44:27.455Z,501.90
2022-10-10T09:46:57.249Z,487.20
2022-10-10T09:49:25.544Z,492.00
2022-10-10T09:51:53.521Z,484.60
2022-10-10T09:54:21.811Z,483.97
2022-10-10T09:56:52.260Z,495.60
2022-10-10T09:59:40.950Z,473.73
2022-10-10T10:02:19.305Z,488.20
2022-10-10T10:04:48.103Z,487.30
2022-10-10T10:07:22.262Z,477.50
2022-10-10T10:09:51.590Z,478.60
2022-10-10T10:12:23.669Z,471.87
2022-10-10T10:14:59.838Z,474.37
2022-10-10T10:17:30.036Z,470.43
2022-10-10T10:19:58.345Z,459.17
2022-10-10T10:22:38.487Z,476.43
2022-10-10T10:25:32.254Z,453.10
2022-10-10T10:28:18.108Z,458.97
2022-10-10T10:30:46.598Z,453.97
2022-10-10T10:33:24.810Z,464.10
2022-10-10T10:35:57.078Z,454.80
2022-10-10T10:38:33.785Z,412.57
2022-10-10T10:41:06.752Z,411.50
2022-10-10T10:43:47.727Z,400.53
2022-10-10T10:46:26.953Z,389.30
2022-10-10T10:49:03.043Z,374.70
2022-10-10T10:51:45.021Z,382.03
2022-10-10T10:54:25.506Z,384.60
2022-10-10T10:57:02.075Z,379.27
2022-10-10T11:00:22.301Z,360.53
2022-10-10T11:02:55.376Z,362.97
2022-10-10T11:05:41.804Z,361.57
2022-10-10T11:08:40.955Z,369.63
2022-10-10T11:11:26.099Z,376.97
2022-10-10T11:14:01.352Z,357.07
2022-10-10T11:19:25.689Z,369.03
2022-10-10T11:21:59.299Z,375.60
2022-10-10T11:24:39.464Z,366.63
2022-10-10T11:27:14.516Z,369.67
2022-10-10T11:29:52.066Z,365.60
2022-10-10T11:32:26.984Z,361.53
2022-10-10T11:35:19.420Z,360.87
2022-10-10T11:37:55.765Z,367.43
2022-10-10T11:40:45.423Z,360.07
2022-10-10T11:43:19.846Z,348.03
2022-10-10T11:45:53.655Z,357.93
2022-10-10T11:48:28.890Z,344.40
2022-10-10T11:51:02.438Z,341.67
2022-10-10T11:53:37.817Z,343.53
2022-10-10T11:56:17.312Z,347.23
2022-10-10T11:58:54.373Z,348.87
2022-10-10T12:01:26.613Z,351.63
2022-10-10T12:03:57.720Z,350.53
2022-10-10T12:06:31.297Z,360.77
2022-10-10T12:09:04.729Z,352.00
2022-10-10T12:11:38.072Z,360.80
2022-10-10T12:14:09.246Z,356.17
2022-10-10T12:16:38.946Z,354.43
2022-10-10T12:19:08.976Z,351.50
2022-10-10T12:21:54.452Z,351.67
2022-10-10T12:24:24.701Z,346.33
2022-10-10T12:27:27.452Z,339.40
2022-10-10T12:30:19.269Z,350.27
2022-10-10T12:32:47.943Z,335.20
2022-10-10T12:35:33.214Z,336.63
2022-10-10T12:38:25.633Z,336.73
2022-10-10T12:41:12.557Z,341.33
2022-10-10T12:43:59.900Z,335.77
2022-10-10T12:46:32.226Z,340.67
2022-10-10T12:49:19.309Z,324.57
2022-10-10T12:52:00.184Z,339.40
2022-10-10T12:54:32.400Z,321.77
2022-10-10T12:57:10.043Z,319.80
2022-10-10T12:59:38.688Z,306.80
2022-10-10T13:02:14.359Z,322.57
2022-10-10T13:04:43.916Z,321.33
2022-10-10T13:07:16.631Z,317.73
2022-10-10T13:09:46.846Z,312.67
2022-10-10T13:12:25.288Z,311.43
2022-10-10T13:14:53.305Z,325.73
2022-10-10T13:17:27.793Z,315.37
2022-10-10T13:19:58.211Z,293.60
2022-10-10T13:22:26.845Z,294.13
2022-10-10T13:24:55.042Z,284.37
2022-10-10T13:27:26.384Z,294.70
2022-10-10T13:29:55.176Z,294.17
2022-10-10T13:32:26.125Z,294.40
2022-10-10T13:34:57.742Z,318.27
2022-10-10T13:37:26.565Z,307.83
2022-10-10T13:39:54.900Z,302.37
2022-10-10T13:42:42.511Z,292.57
2022-10-10T13:45:33.952Z,297.80
2022-10-10T13:48:16.782Z,309.33
2022-10-10T13:50:56.722Z,301.97
2022-10-10T13:53:33.130Z,298.27
2022-10-10T13:56:05.069Z,309.53
2022-10-10T13:58:40.817Z,318.07
2022-10-10T14:01:20.655Z,295.83
2022-10-10T14:03:49.382Z,281.93
2022-10-10T14:06:19.152Z,291.10
2022-10-10T14:08:47.665Z,283.73
2022-10-10T14:11:19.316Z,275.17
2022-10-10T14:13:51.567Z,283.07
2022-10-10T14:16:25.359Z,276.37
2022-10-10T14:18:53.675Z,306.80
2022-10-10T14:21:21.686Z,279.43
2022-10-10T14:23:49.691Z,283.93
2022-10-10T14:26:19.727Z,273.03
2022-10-10T14:28:49.422Z,277.87
2022-10-10T14:31:17.552Z,285.53
2022-10-10T14:33:45.573Z,282.53
2022-10-10T14:36:14.379Z,287.53
2022-10-10T14:38:42.539Z,271.27
2022-10-10T14:41:12.998Z,285.80
2022-10-10T14:43:45.555Z,290.00
2022-10-10T14:46:18.745Z,299.77
2022-10-10T14:48:46.970Z,303.80
2022-10-10T14:51:33.978Z,304.60
2022-10-10T14:54:13.555Z,287.47
2022-10-10T14:57:06.967Z,289.80
2022-10-10T14:59:49.254Z,294.57
2022-10-10T15:02:21.464Z,286.70
2022-10-10T15:04:49.922Z,286.07
2022-10-10T15:07:18.318Z,278.43
2022-10-10T15:10:32.040Z,282.23
2022-10-10T15:12:37.820Z,285.33
2022-10-10T15:15:07.268Z,278.73
2022-10-10T15:17:36.910Z,289.90
2022-10-10T15:20:06.802Z,284.97
2022-10-10T15:22:35.086Z,292.50
2022-10-10T15:25:03.180Z,295.63
2022-10-10T15:27:32.725Z,288.87
2022-10-10T15:30:00.944Z,293.57
2022-10-10T15:32:29.032Z,314.40
2022-10-10T15:34:58.579Z,317.60
2022-10-10T15:37:27.469Z,334.10
2022-10-10T15:39:55.720Z,311.33
2022-10-10T15:42:23.813Z,321.33
2022-10-10T15:44:52.311Z,315.77
2022-10-10T15:47:20.755Z,355.07
2022-10-10T15:49:48.890Z,332.27
2022-10-10T15:52:18.803Z,348.73
2022-10-10T15:54:49.580Z,370.57
2022-10-10T15:57:19.040Z,363.53
2022-10-10T15:59:48.060Z,357.47
2022-10-10T16:02:16.368Z,359.00
2022-10-10T16:04:45.133Z,344.63
2022-10-10T16:07:28.165Z,351.13
2022-10-10T16:10:01.150Z,347.37
2022-10-10T16:12:29.191Z,347.00
2022-10-10T16:14:57.180Z,354.13
2022-10-10T16:17:25.202Z,425.70
2022-10-10T16:19:53.189Z,584.90
2022-10-10T16:22:21.410Z,600.93
2022-10-10T16:25:10.135Z,617.17
2022-10-10T16:27:39.424Z,600.80
2022-10-10T16:30:08.878Z,614.03
2022-10-10T16:32:41.798Z,627.33
2022-10-10T16:35:11.124Z,622.00
2022-10-10T16:37:39.601Z,630.93
2022-10-10T16:40:08.784Z,633.53
2022-10-10T16:42:36.867Z,631.53
2022-10-10T16:45:07.477Z,629.07
2022-10-10T16:47:35.954Z,641.63
2022-10-10T16:50:04.680Z,653.27
2022-10-10T16:52:37.740Z,664.77
2022-10-10T16:55:06.660Z,680.73
2022-10-10T16:57:35.169Z,692.80
2022-10-10T17:00:03.689Z,697.93
2022-10-10T17:02:33.189Z,720.43
2022-10-10T17:05:01.273Z,745.40
2022-10-10T17:07:29.297Z,741.70
2022-10-10T17:09:57.325Z,756.20
2022-10-10T17:12:25.369Z,768.43
2022-10-10T17:14:53.500Z,754.87
2022-10-10T17:17:22.624Z,768.30
2022-10-10T17:19:52.405Z,767.57
2022-10-10T17:22:20.512Z,755.83
2022-10-10T17:24:48.617Z,753.90
2022-10-10T17:27:16.669Z,748.87
2022-10-10T17:29:44.838Z,751.67
2022-10-10T17:32:13.282Z,740.20
2022-10-10T17:34:41.733Z,755.53
2022-10-10T17:37:14.066Z,750.50
2022-10-10T17:39:42.153Z,750.97
2022-10-10T17:42:10.303Z,762.23
2022-10-10T17:44:44.730Z,753.87
2022-10-10T17:47:17.087Z,745.17
2022-10-10T17:49:47.354Z,768.40
2022-10-10T17:52:21.075Z,760.03
2022-10-10T17:54:49.635Z,770.63
2022-10-10T17:57:18.018Z,759.70
2022-10-10T17:59:46.322Z,765.67
2022-10-10T18:02:18.979Z,762.40
2022-10-10T18:04:47.247Z,755.40
2022-10-10T18:07:18.557Z,758.87
2022-10-10T18:09:47.119Z,760.10
2022-10-10T18:12:15.116Z,758.13
2022-10-10T18:14:43.490Z,766.80
2022-10-10T18:17:12.051Z,747.23
2022-10-10T18:19:40.091Z,755.70
2022-10-10T18:22:08.211Z,743.13
2022-10-10T18:24:37.867Z,754.23
2022-10-10T18:27:05.954Z,738.60
2022-10-10T18:29:34.172Z,753.33
2022-10-10T18:32:02.153Z,747.70
2022-10-10T18:34:31.420Z,738.60
2022-10-10T18:36:59.619Z,752.40
2022-10-10T18:39:32.931Z,743.40
2022-10-10T18:42:02.597Z,727.63
2022-10-10T18:44:30.740Z,716.57
2022-10-10T18:46:58.791Z,728.17
2022-10-10T18:49:27.011Z,755.77
2022-10-10T18:51:54.960Z,761.97
2022-10-10T18:54:23.009Z,770.90
2022-10-10T18:56:51.016Z,772.23
2022-10-10T18:59:22.156Z,781.53
2022-10-10T19:01:52.315Z,777.57
2022-10-10T19:04:21.165Z,784.60
2022-10-10T19:06:53.209Z,784.93
2022-10-10T19:09:26.726Z,790.17
2022-10-10T19:11:55.133Z,805.23
2022-10-10T19:14:30.565Z,809.20
2022-10-10T19:16:58.578Z,813.40
2022-10-10T19:19:26.621Z,831.37
2022-10-10T19:21:54.614Z,829.77
2022-10-10T19:24:22.635Z,846.87
2022-10-10T19:26:53.559Z,846.90
2022-10-10T19:29:22.370Z,862.83
2022-10-10T19:31:52.901Z,855.13
2022-10-10T19:34:20.998Z,857.63
2022-10-10T19:36:49.006Z,863.27
2022-10-10T19:39:17.173Z,863.33
2022-10-10T19:41:45.240Z,870.13
2022-10-10T19:44:13.378Z,864.57
2022-10-10T19:46:41.555Z,868.17
2022-10-10T19:49:14.815Z,866.47
2022-10-10T19:51:44.856Z,858.97
2022-10-10T19:54:13.626Z,847.20
2022-10-10T19:56:44.252Z,847.27
2022-10-10T19:59:13.748Z,835.60
2022-10-10T20:01:41.869Z,827.27
2022-10-10T20:04:11.706Z,820.73
2022-10-10T20:06:43.571Z,809.37
2022-10-10T20:09:14.633Z,812.43
2022-10-10T20:11:43.077Z,795.70
2022-10-10T20:14:12.403Z,783.67
2022-10-10T20:16:43.837Z,781.33
2022-10-10T20:19:15.586Z,776.10
2022-10-10T20:21:45.216Z,770.60
2022-10-10T20:24:13.720Z,768.30
2022-10-10T20:26:41.836Z,751.63
2022-10-10T20:29:10.536Z,723.40
2022-10-10T20:31:39.267Z,713.57
2022-10-10T20:34:08.042Z,709.00
2022-10-10T20:36:37.093Z,692.17
2022-10-10T20:39:08.555Z,684.73
2022-10-10T20:41:38.503Z,691.90
2022-10-10T20:44:07.911Z,687.00
2022-10-10T20:46:37.679Z,668.10
2022-10-10T20:49:08.009Z,667.03
2022-10-10T20:51:37.176Z,656.27
2022-10-10T20:54:07.729Z,629.57
2022-10-10T20:56:36.740Z,628.70
2022-10-10T20:59:05.085Z,624.80
2022-10-10T21:01:33.987Z,627.43
2022-10-10T21:04:02.860Z,645.07
2022-10-10T21:06:32.344Z,644.63
2022-10-10T21:09:01.836Z,665.80
2022-10-10T21:11:32.105Z,658.10
2022-10-10T21:14:01.748Z,649.23
2022-10-10T21:16:32.172Z,650.23
2022-10-10T21:19:00.697Z,645.67
2022-10-10T21:21:29.765Z,648.47
2022-10-10T21:23:58.184Z,660.83
2022-10-10T21:26:27.684Z,648.90
2022-10-10T21:28:57.832Z,653.17
2022-10-10T21:31:27.314Z,648.83
2022-10-10T21:33:55.649Z,638.70
2022-10-10T21:36:24.930Z,640.27
2022-10-10T21:38:53.287Z,641.33
2022-10-10T21:41:22.059Z,638.47
2022-10-10T21:43:56.381Z,639.87
2022-10-10T21:46:32.425Z,630.27
2022-10-10T21:49:09.544Z,618.50
2022-10-10T21:51:39.272Z,613.97
2022-10-10T21:54:08.324Z,609.00
2022-10-10T21:56:40.346Z,617.67
2022-10-10T21:59:08.782Z,612.57
2022-10-10T22:01:38.316Z,613.83
2022-10-10T22:04:07.433Z,619.63
2022-10-10T22:06:36.070Z,608.40
2022-10-10T22:09:04.715Z,603.63
2022-10-10T22:11:34.248Z,605.40
2022-10-10T22:14:03.271Z,609.97
2022-10-10T22:16:31.590Z,600.80
2022-10-10T22:19:01.056Z,612.73
2022-10-10T22:21:31.748Z,600.77
2022-10-10T22:24:01.470Z,607.70
2022-10-10T22:26:29.854Z,612.40
2022-10-10T22:28:58.003Z,605.57
2022-10-10T22:31:26.469Z,596.87
2022-10-10T22:33:54.556Z,613.43
2022-10-10T22:36:23.919Z,612.13
2022-10-10T22:38:51.896Z,611.50
2022-10-10T22:41:19.863Z,613.47
2022-10-10T22:43:47.957Z,617.83
2022-10-10T22:46:15.999Z,622.63
2022-10-10T22:48:43.995Z,619.47
2022-10-10T22:51:13.822Z,621.17
2022-10-10T22:53:46.994Z,641.53
2022-10-10T22:56:16.984Z,632.33
2022-10-10T22:58:44.939Z,629.60
2022-10-10T23:01:15.347Z,633.00
2022-10-10T23:03:43.593Z,634.73
2022-10-10T23:06:11.947Z,632.63
2022-10-10T23:08:40.005Z,634.77
2022-10-10T23:11:11.466Z,634.33
2022-10-10T23:13:39.438Z,636.60
2022-10-10T23:16:08.436Z,634.93
2022-10-10T23:18:36.859Z,651.17
2022-10-10T23:21:07.929Z,649.40
2022-10-10T23:23:36.073Z,648.80
2022-10-10T23:26:07.242Z,656.77
2022-10-10T23:28:39.348Z,647.07
2022-10-10T23:31:11.222Z,641.00
2022-10-10T23:33:39.721Z,648.87
2022-10-10T23:36:09.658Z,646.33
2022-10-10T23:38:37.740Z,652.87
2022-10-10T23:41:05.954Z,652.57
2022-10-10T23:43:34.424Z,657.63
2022-10-10T23:46:04.189Z,644.97
2022-10-10T23:48:32.501Z,646.63
2022-10-10T23:51:00.460Z,640.90
2022-10-10T23:53:28.439Z,653.87
2022-10-10T23:55:56.478Z,655.87
2022-10-10T23:58:24.460Z,666.93
